sensor_id;sensor_type;location;lat;lon;timestamp;pressure;altitude;pressure_sealevel;temperature
68745;BMP180;66104;45.456;11.064;2023-03-09T09:20:11;99413.00;;;16.00
68745;BMP180;66104;45.456;11.064;2023-03-09T09:22:48;99419.60;;;16.10
68745;BMP180;66104;45.456;11.064;2023-03-09T09:25:24;99415.20;;;16.10
68745;BMP180;66104;45.456;11.064;2023-03-09T09:28:02;99418.80;;;16.20
68745;BMP180;66104;45.456;11.064;2023-03-09T09:30:38;99404.80;;;16.20
68745;BMP180;66104;45.456;11.064;2023-03-09T09:33:17;99401.40;;;16.30
68745;BMP180;66104;45.456;11.064;2023-03-09T09:36:02;99408.60;;;16.40
68745;BMP180;66104;45.456;11.064;2023-03-09T09:38:39;99405.80;;;16.40
68745;BMP180;66104;45.456;11.064;2023-03-09T09:41:25;99402.00;;;16.50
68745;BMP180;66104;45.456;11.064;2023-03-09T09:44:06;99406.20;;;16.60
68745;BMP180;66104;45.456;11.064;2023-03-09T09:46:47;99405.00;;;16.70
68745;BMP180;66104;45.456;11.064;2023-03-09T09:49:28;99408.40;;;16.70
68745;BMP180;66104;45.456;11.064;2023-03-09T09:52:22;99397.60;;;16.70
68745;BMP180;66104;45.456;11.064;2023-03-09T09:55:12;99398.00;;;16.80
68745;BMP180;66104;45.456;11.064;2023-03-09T09:58:00;99394.40;;;16.80
68745;BMP180;66104;45.456;11.064;2023-03-09T10:00:43;99392.40;;;16.80
68745;BMP180;66104;45.456;11.064;2023-03-09T10:06:22;99394.60;;;16.90
68745;BMP180;66104;45.456;11.064;2023-03-09T10:09:02;99397.00;;;17.00
68745;BMP180;66104;45.456;11.064;2023-03-09T10:11:45;99395.60;;;17.00
68745;BMP180;66104;45.456;11.064;2023-03-09T10:14:31;99395.80;;;17.10
68745;BMP180;66104;45.456;11.064;2023-03-09T10:17:14;99394.00;;;17.20
68745;BMP180;66104;45.456;11.064;2023-03-09T10:19:52;99394.60;;;17.30
68745;BMP180;66104;45.456;11.064;2023-03-09T10:22:32;99391.40;;;17.30
68745;BMP180;66104;45.456;11.064;2023-03-09T10:25:16;99388.60;;;17.30
68745;BMP180;66104;45.456;11.064;2023-03-09T10:28:02;99389.60;;;17.32
68745;BMP180;66104;45.456;11.064;2023-03-09T10:30:49;99389.80;;;17.30
68745;BMP180;66104;45.456;11.064;2023-03-09T10:33:41;99393.00;;;17.40
68745;BMP180;66104;45.456;11.064;2023-03-09T10:36:26;99387.20;;;17.40
68745;BMP180;66104;45.456;11.064;2023-03-09T10:39:13;99382.80;;;17.50
68745;BMP180;66104;45.456;11.064;2023-03-09T10:41:51;99396.80;;;17.50
68745;BMP180;66104;45.456;11.064;2023-03-09T10:44:30;99407.80;;;17.54
68745;BMP180;66104;45.456;11.064;2023-03-09T10:47:09;99411.40;;;17.60
68745;BMP180;66104;45.456;11.064;2023-03-09T10:50:10;99415.40;;;17.60
68745;BMP180;66104;45.456;11.064;2023-03-09T10:53:14;99411.80;;;17.60
68745;BMP180;66104;45.456;11.064;2023-03-09T10:55:54;99410.40;;;17.70
68745;BMP180;66104;45.456;11.064;2023-03-09T10:58:39;99414.80;;;17.70
68745;BMP180;66104;45.456;11.064;2023-03-09T11:01:29;99413.60;;;17.80
68745;BMP180;66104;45.456;11.064;2023-03-09T11:04:29;99413.60;;;17.90
68745;BMP180;66104;45.456;11.064;2023-03-09T11:07:19;99404.60;;;17.94
68745;BMP180;66104;45.456;11.064;2023-03-09T11:09:59;99412.00;;;18.00
68745;BMP180;66104;45.456;11.064;2023-03-09T11:12:39;99408.20;;;18.10
68745;BMP180;66104;45.456;11.064;2023-03-09T11:15:32;99412.40;;;18.10
68745;BMP180;66104;45.456;11.064;2023-03-09T11:18:31;99416.60;;;18.14
68745;BMP180;66104;45.456;11.064;2023-03-09T11:21:09;99416.00;;;18.10
68745;BMP180;66104;45.456;11.064;2023-03-09T11:23:51;99416.40;;;18.10
68745;BMP180;66104;45.456;11.064;2023-03-09T11:26:35;99419.60;;;18.16
68745;BMP180;66104;45.456;11.064;2023-03-09T11:29:25;99406.40;;;18.20
68745;BMP180;66104;45.456;11.064;2023-03-09T11:32:06;99408.80;;;18.30
68745;BMP180;66104;45.456;11.064;2023-03-09T11:34:46;99410.20;;;18.30
68745;BMP180;66104;45.456;11.064;2023-03-09T11:37:34;99405.60;;;18.30
68745;BMP180;66104;45.456;11.064;2023-03-09T11:40:19;99407.40;;;18.40
68745;BMP180;66104;45.456;11.064;2023-03-09T11:42:59;99405.80;;;18.40
68745;BMP180;66104;45.456;11.064;2023-03-09T11:45:41;99404.60;;;18.40
68745;BMP180;66104;45.456;11.064;2023-03-09T11:48:26;99401.60;;;18.46
68745;BMP180;66104;45.456;11.064;2023-03-09T11:51:11;99399.80;;;18.46
68745;BMP180;66104;45.456;11.064;2023-03-09T11:53:58;99400.40;;;18.50
68745;BMP180;66104;45.456;11.064;2023-03-09T11:56:46;99402.20;;;18.60
68745;BMP180;66104;45.456;11.064;2023-03-09T11:59:31;99394.40;;;18.70
68745;BMP180;66104;45.456;11.064;2023-03-09T12:02:22;99395.60;;;18.80
68745;BMP180;66104;45.456;11.064;2023-03-09T12:04:58;99399.80;;;18.90
68745;BMP180;66104;45.456;11.064;2023-03-09T12:07:50;99395.20;;;18.90
68745;BMP180;66104;45.456;11.064;2023-03-09T12:10:36;99397.20;;;19.00
68745;BMP180;66104;45.456;11.064;2023-03-09T12:13:18;99387.60;;;19.08
68745;BMP180;66104;45.456;11.064;2023-03-09T12:16:03;99382.80;;;19.10
68745;BMP180;66104;45.456;11.064;2023-03-09T12:18:54;99382.80;;;19.10
68745;BMP180;66104;45.456;11.064;2023-03-09T12:21:38;99386.80;;;19.12
68745;BMP180;66104;45.456;11.064;2023-03-09T12:24:34;99381.20;;;19.20
68745;BMP180;66104;45.456;11.064;2023-03-09T12:27:22;99378.80;;;19.20
68745;BMP180;66104;45.456;11.064;2023-03-09T12:30:17;99375.40;;;19.20
68745;BMP180;66104;45.456;11.064;2023-03-09T12:32:57;99376.60;;;19.30
68745;BMP180;66104;45.456;11.064;2023-03-09T12:36:23;99372.60;;;19.30
68745;BMP180;66104;45.456;11.064;2023-03-09T12:39:36;99367.40;;;19.40
68745;BMP180;66104;45.456;11.064;2023-03-09T12:42:37;99361.00;;;19.50
68745;BMP180;66104;45.456;11.064;2023-03-09T12:45:33;99364.40;;;19.50
68745;BMP180;66104;45.456;11.064;2023-03-09T12:48:27;99367.20;;;19.50
68745;BMP180;66104;45.456;11.064;2023-03-09T12:51:13;99368.00;;;19.50
68745;BMP180;66104;45.456;11.064;2023-03-09T12:54:07;99362.20;;;19.60
68745;BMP180;66104;45.456;11.064;2023-03-09T12:56:53;99355.20;;;19.70
68745;BMP180;66104;45.456;11.064;2023-03-09T12:59:31;99359.20;;;19.60
68745;BMP180;66104;45.456;11.064;2023-03-09T13:02:32;99355.80;;;19.60
68745;BMP180;66104;45.456;11.064;2023-03-09T13:05:28;99354.80;;;19.50
68745;BMP180;66104;45.456;11.064;2023-03-09T13:08:20;99354.60;;;19.60
68745;BMP180;66104;45.456;11.064;2023-03-09T13:11:31;99359.00;;;19.54
68745;BMP180;66104;45.456;11.064;2023-03-09T13:14:31;99366.00;;;19.50
68745;BMP180;66104;45.456;11.064;2023-03-09T13:17:38;99362.60;;;19.50
68745;BMP180;66104;45.456;11.064;2023-03-09T13:20:38;99361.20;;;19.60
68745;BMP180;66104;45.456;11.064;2023-03-09T13:23:21;99364.60;;;19.60
68745;BMP180;66104;45.456;11.064;2023-03-09T13:25:59;99363.20;;;19.60
68745;BMP180;66104;45.456;11.064;2023-03-09T13:28:43;99359.60;;;19.52
68745;BMP180;66104;45.456;11.064;2023-03-09T13:31:28;99356.40;;;19.50
68745;BMP180;66104;45.456;11.064;2023-03-09T13:34:10;99360.60;;;19.50
68745;BMP180;66104;45.456;11.064;2023-03-09T13:36:52;99354.40;;;19.50
68745;BMP180;66104;45.456;11.064;2023-03-09T13:39:30;99348.80;;;19.50
68745;BMP180;66104;45.456;11.064;2023-03-09T13:42:11;99346.80;;;19.50
68745;BMP180;66104;45.456;11.064;2023-03-09T13:44:52;99344.80;;;19.50
68745;BMP180;66104;45.456;11.064;2023-03-09T13:47:31;99341.20;;;19.50
68745;BMP180;66104;45.456;11.064;2023-03-09T13:50:18;99345.80;;;19.60
68745;BMP180;66104;45.456;11.064;2023-03-09T13:53:18;99345.40;;;19.60
68745;BMP180;66104;45.456;11.064;2023-03-09T13:56:01;99349.20;;;19.60
68745;BMP180;66104;45.456;11.064;2023-03-09T13:58:45;99350.60;;;19.60
68745;BMP180;66104;45.456;11.064;2023-03-09T14:01:28;99346.00;;;19.60
68745;BMP180;66104;45.456;11.064;2023-03-09T14:04:05;99349.80;;;19.66
68745;BMP180;66104;45.456;11.064;2023-03-09T14:06:49;99349.20;;;19.70
68745;BMP180;66104;45.456;11.064;2023-03-09T14:09:52;99346.80;;;19.70
68745;BMP180;66104;45.456;11.064;2023-03-09T14:12:35;99346.00;;;19.70
68745;BMP180;66104;45.456;11.064;2023-03-09T14:15:22;99350.80;;;19.76
68745;BMP180;66104;45.456;11.064;2023-03-09T14:18:01;99348.80;;;19.80
68745;BMP180;66104;45.456;11.064;2023-03-09T14:20:40;99345.60;;;19.80
68745;BMP180;66104;45.456;11.064;2023-03-09T14:23:39;99344.00;;;19.80
68745;BMP180;66104;45.456;11.064;2023-03-09T14:26:27;99345.60;;;19.80
68745;BMP180;66104;45.456;11.064;2023-03-09T14:29:27;99346.20;;;19.70
68745;BMP180;66104;45.456;11.064;2023-03-09T14:32:27;99346.20;;;19.70
68745;BMP180;66104;45.456;11.064;2023-03-09T14:35:29;99350.80;;;19.70
68745;BMP180;66104;45.456;11.064;2023-03-09T14:38:19;99353.80;;;19.70
68745;BMP180;66104;45.456;11.064;2023-03-09T14:41:13;99351.80;;;19.70
68745;BMP180;66104;45.456;11.064;2023-03-09T14:43:52;99349.00;;;19.60
68745;BMP180;66104;45.456;11.064;2023-03-09T14:46:31;99344.40;;;19.60
68745;BMP180;66104;45.456;11.064;2023-03-09T14:49:11;99343.00;;;19.60
68745;BMP180;66104;45.456;11.064;2023-03-09T14:51:48;99342.80;;;19.58
68745;BMP180;66104;45.456;11.064;2023-03-09T14:54:26;99341.60;;;19.56
68745;BMP180;66104;45.456;11.064;2023-03-09T14:57:05;99347.60;;;19.56
68745;BMP180;66104;45.456;11.064;2023-03-09T14:59:42;99345.00;;;19.56
68745;BMP180;66104;45.456;11.064;2023-03-09T15:02:20;99344.00;;;19.60
68745;BMP180;66104;45.456;11.064;2023-03-09T15:04:58;99345.20;;;19.60
68745;BMP180;66104;45.456;11.064;2023-03-09T15:07:35;99343.60;;;19.60
68745;BMP180;66104;45.456;11.064;2023-03-09T15:10:13;99346.00;;;19.60
68745;BMP180;66104;45.456;11.064;2023-03-09T15:12:51;99347.80;;;19.54
68745;BMP180;66104;45.456;11.064;2023-03-09T15:15:30;99345.00;;;19.50
68745;BMP180;66104;45.456;11.064;2023-03-09T15:18:08;99351.00;;;19.50
68745;BMP180;66104;45.456;11.064;2023-03-09T15:20:47;99348.00;;;19.40
68745;BMP180;66104;45.456;11.064;2023-03-09T15:23:25;99340.40;;;19.40
68745;BMP180;66104;45.456;11.064;2023-03-09T15:26:06;99340.60;;;19.40
68745;BMP180;66104;45.456;11.064;2023-03-09T15:28:42;99342.00;;;19.40
68745;BMP180;66104;45.456;11.064;2023-03-09T15:31:19;99344.40;;;19.40
68745;BMP180;66104;45.456;11.064;2023-03-09T15:33:57;99349.80;;;19.30
68745;BMP180;66104;45.456;11.064;2023-03-09T15:36:34;99354.80;;;19.30
68745;BMP180;66104;45.456;11.064;2023-03-09T15:39:11;99359.40;;;19.30
68745;BMP180;66104;45.456;11.064;2023-03-09T15:41:47;99359.60;;;19.20
68745;BMP180;66104;45.456;11.064;2023-03-09T15:44:24;99361.40;;;19.20
68745;BMP180;66104;45.456;11.064;2023-03-09T15:47:05;99365.00;;;19.10
68745;BMP180;66104;45.456;11.064;2023-03-09T15:49:45;99365.00;;;19.10
68745;BMP180;66104;45.456;11.064;2023-03-09T15:52:22;99366.60;;;19.00
68745;BMP180;66104;45.456;11.064;2023-03-09T15:54:59;99367.20;;;19.00
68745;BMP180;66104;45.456;11.064;2023-03-09T15:57:37;99364.40;;;18.90
68745;BMP180;66104;45.456;11.064;2023-03-09T16:00:24;99368.60;;;18.90
68745;BMP180;66104;45.456;11.064;2023-03-09T16:03:05;99378.60;;;18.80
68745;BMP180;66104;45.456;11.064;2023-03-09T16:05:42;99389.00;;;18.80
68745;BMP180;66104;45.456;11.064;2023-03-09T16:08:19;99392.80;;;18.70
68745;BMP180;66104;45.456;11.064;2023-03-09T16:10:56;99393.80;;;18.60
68745;BMP180;66104;45.456;11.064;2023-03-09T16:13:33;99392.60;;;18.50
68745;BMP180;66104;45.456;11.064;2023-03-09T16:16:14;99392.40;;;18.40
68745;BMP180;66104;45.456;11.064;2023-03-09T16:18:51;99398.20;;;18.20
68745;BMP180;66104;45.456;11.064;2023-03-09T16:21:28;99402.20;;;18.10
68745;BMP180;66104;45.456;11.064;2023-03-09T16:24:06;99401.80;;;18.00
68745;BMP180;66104;45.456;11.064;2023-03-09T16:26:44;99407.40;;;17.82
68745;BMP180;66104;45.456;11.064;2023-03-09T16:29:21;99407.20;;;17.80
68745;BMP180;66104;45.456;11.064;2023-03-09T16:32:00;99406.40;;;17.70
68745;BMP180;66104;45.456;11.064;2023-03-09T16:34:36;99414.40;;;17.66
68745;BMP180;66104;45.456;11.064;2023-03-09T16:37:13;99417.20;;;17.60
68745;BMP180;66104;45.456;11.064;2023-03-09T16:39:50;99411.60;;;17.50
68745;BMP180;66104;45.456;11.064;2023-03-09T16:42:28;99411.20;;;17.50
68745;BMP180;66104;45.456;11.064;2023-03-09T16:45:08;99402.20;;;17.40
68745;BMP180;66104;45.456;11.064;2023-03-09T16:47:45;99404.60;;;17.38
68745;BMP180;66104;45.456;11.064;2023-03-09T16:50:23;99409.20;;;17.30
68745;BMP180;66104;45.456;11.064;2023-03-09T16:53:00;99404.80;;;17.30
68745;BMP180;66104;45.456;11.064;2023-03-09T16:55:37;99408.20;;;17.20
68745;BMP180;66104;45.456;11.064;2023-03-09T16:58:14;99402.80;;;17.20
68745;BMP180;66104;45.456;11.064;2023-03-09T17:00:50;99405.80;;;17.20
68745;BMP180;66104;45.456;11.064;2023-03-09T17:03:28;99402.80;;;17.10
68745;BMP180;66104;45.456;11.064;2023-03-09T17:06:11;99402.00;;;17.10
68745;BMP180;66104;45.456;11.064;2023-03-09T17:08:48;99403.40;;;17.02
68745;BMP180;66104;45.456;11.064;2023-03-09T17:11:25;99397.80;;;17.00
68745;BMP180;66104;45.456;11.064;2023-03-09T17:14:02;99395.80;;;17.00
68745;BMP180;66104;45.456;11.064;2023-03-09T17:16:41;99395.40;;;16.90
68745;BMP180;66104;45.456;11.064;2023-03-09T17:19:18;99400.20;;;16.90
68745;BMP180;66104;45.456;11.064;2023-03-09T17:21:54;99401.60;;;16.90
68745;BMP180;66104;45.456;11.064;2023-03-09T17:24:34;99406.40;;;16.80
68745;BMP180;66104;45.456;11.064;2023-03-09T17:27:11;99413.40;;;16.80
68745;BMP180;66104;45.456;11.064;2023-03-09T17:29:49;99410.20;;;16.70
68745;BMP180;66104;45.456;11.064;2023-03-09T17:32:25;99414.00;;;16.70
68745;BMP180;66104;45.456;11.064;2023-03-09T17:35:03;99419.20;;;16.62
68745;BMP180;66104;45.456;11.064;2023-03-09T17:37:39;99425.80;;;16.62
68745;BMP180;66104;45.456;11.064;2023-03-09T17:40:19;99425.20;;;16.60
68745;BMP180;66104;45.456;11.064;2023-03-09T17:42:56;99424.80;;;16.60
68745;BMP180;66104;45.456;11.064;2023-03-09T17:45:33;99431.00;;;16.50
68745;BMP180;66104;45.456;11.064;2023-03-09T17:48:11;99443.40;;;16.50
68745;BMP180;66104;45.456;11.064;2023-03-09T17:50:56;99447.40;;;16.40
68745;BMP180;66104;45.456;11.064;2023-03-09T17:53:33;99458.00;;;16.40
68745;BMP180;66104;45.456;11.064;2023-03-09T17:56:12;99457.40;;;16.34
68745;BMP180;66104;45.456;11.064;2023-03-09T17:58:48;99457.80;;;16.30
68745;BMP180;66104;45.456;11.064;2023-03-09T18:01:27;99458.00;;;16.30
68745;BMP180;66104;45.456;11.064;2023-03-09T18:04:04;99454.20;;;16.28
68745;BMP180;66104;45.456;11.064;2023-03-09T18:06:41;99460.20;;;16.20
68745;BMP180;66104;45.456;11.064;2023-03-09T18:09:17;99470.40;;;16.20
68745;BMP180;66104;45.456;11.064;2023-03-09T18:11:55;99472.00;;;16.20
68745;BMP180;66104;45.456;11.064;2023-03-09T18:14:31;99471.40;;;16.20
68745;BMP180;66104;45.456;11.064;2023-03-09T18:17:09;99474.00;;;16.20
68745;BMP180;66104;45.456;11.064;2023-03-09T18:19:45;99471.00;;;16.20
68745;BMP180;66104;45.456;11.064;2023-03-09T18:22:21;99475.20;;;16.30
68745;BMP180;66104;45.456;11.064;2023-03-09T18:24:58;99474.00;;;16.30
68745;BMP180;66104;45.456;11.064;2023-03-09T18:27:36;99470.00;;;16.26
68745;BMP180;66104;45.456;11.064;2023-03-09T18:30:17;99467.80;;;16.28
68745;BMP180;66104;45.456;11.064;2023-03-09T18:32:55;99476.20;;;16.24
68745;BMP180;66104;45.456;11.064;2023-03-09T18:35:32;99475.80;;;16.20
68745;BMP180;66104;45.456;11.064;2023-03-09T18:38:08;99480.80;;;16.24
68745;BMP180;66104;45.456;11.064;2023-03-09T18:40:45;99481.20;;;16.24
68745;BMP180;66104;45.456;11.064;2023-03-09T18:43:23;99484.20;;;16.20
68745;BMP180;66104;45.456;11.064;2023-03-09T18:46:00;99485.60;;;16.20
68745;BMP180;66104;45.456;11.064;2023-03-09T18:48:36;99490.60;;;16.20
68745;BMP180;66104;45.456;11.064;2023-03-09T18:51:15;99485.80;;;16.20
68745;BMP180;66104;45.456;11.064;2023-03-09T18:53:50;99482.20;;;16.20
68745;BMP180;66104;45.456;11.064;2023-03-09T18:56:28;99483.40;;;16.20
68745;BMP180;66104;45.456;11.064;2023-03-09T18:59:04;99480.00;;;16.20
68745;BMP180;66104;45.456;11.064;2023-03-09T19:01:42;99484.20;;;16.20
68745;BMP180;66104;45.456;11.064;2023-03-09T19:04:19;99484.00;;;16.20
68745;BMP180;66104;45.456;11.064;2023-03-09T19:06:56;99485.40;;;16.14
68745;BMP180;66104;45.456;11.064;2023-03-09T19:09:33;99481.60;;;16.10
68745;BMP180;66104;45.456;11.064;2023-03-09T19:12:12;99481.80;;;16.10
68745;BMP180;66104;45.456;11.064;2023-03-09T19:14:53;99483.00;;;16.10
68745;BMP180;66104;45.456;11.064;2023-03-09T19:17:30;99481.00;;;16.10
68745;BMP180;66104;45.456;11.064;2023-03-09T19:20:12;99479.00;;;16.10
68745;BMP180;66104;45.456;11.064;2023-03-09T19:22:50;99480.20;;;16.08
68745;BMP180;66104;45.456;11.064;2023-03-09T19:25:27;99479.20;;;16.00
68745;BMP180;66104;45.456;11.064;2023-03-09T19:28:04;99481.20;;;16.00
68745;BMP180;66104;45.456;11.064;2023-03-09T19:30:44;99484.20;;;15.94
68745;BMP180;66104;45.456;11.064;2023-03-09T19:33:22;99489.60;;;15.90
68745;BMP180;66104;45.456;11.064;2023-03-09T19:36:01;99487.80;;;15.90
68745;BMP180;66104;45.456;11.064;2023-03-09T19:38:37;99487.20;;;15.88
68745;BMP180;66104;45.456;11.064;2023-03-09T19:41:15;99494.80;;;15.90
68745;BMP180;66104;45.456;11.064;2023-03-09T19:43:52;99499.80;;;15.80
68745;BMP180;66104;45.456;11.064;2023-03-09T19:46:28;99499.00;;;15.80
68745;BMP180;66104;45.456;11.064;2023-03-09T19:49:06;99501.00;;;15.80
68745;BMP180;66104;45.456;11.064;2023-03-09T19:51:42;99500.20;;;15.80
68745;BMP180;66104;45.456;11.064;2023-03-09T19:54:19;99496.80;;;15.80
68745;BMP180;66104;45.456;11.064;2023-03-09T19:56:57;99491.80;;;15.80
68745;BMP180;66104;45.456;11.064;2023-03-09T19:59:32;99492.40;;;15.80
68745;BMP180;66104;45.456;11.064;2023-03-09T20:02:10;99494.40;;;15.72
68745;BMP180;66104;45.456;11.064;2023-03-09T20:04:46;99487.40;;;15.70
68745;BMP180;66104;45.456;11.064;2023-03-09T20:07:24;99487.20;;;15.70
68745;BMP180;66104;45.456;11.064;2023-03-09T20:10:02;99486.00;;;15.70
68745;BMP180;66104;45.456;11.064;2023-03-09T20:12:39;99480.00;;;15.70
68745;BMP180;66104;45.456;11.064;2023-03-09T20:15:16;99479.00;;;15.70
68745;BMP180;66104;45.456;11.064;2023-03-09T20:17:53;99477.20;;;15.70
68745;BMP180;66104;45.456;11.064;2023-03-09T20:20:30;99475.80;;;15.70
68745;BMP180;66104;45.456;11.064;2023-03-09T20:23:06;99478.80;;;15.60
68745;BMP180;66104;45.456;11.064;2023-03-09T20:25:44;99475.80;;;15.60
68745;BMP180;66104;45.456;11.064;2023-03-09T20:28:21;99481.40;;;15.60
68745;BMP180;66104;45.456;11.064;2023-03-09T20:30:58;99480.40;;;15.50
68745;BMP180;66104;45.456;11.064;2023-03-09T20:33:34;99479.60;;;15.50
68745;BMP180;66104;45.456;11.064;2023-03-09T20:36:12;99480.40;;;15.50
68745;BMP180;66104;45.456;11.064;2023-03-09T20:38:49;99483.80;;;15.40
68745;BMP180;66104;45.456;11.064;2023-03-09T20:41:26;99478.40;;;15.40
68745;BMP180;66104;45.456;11.064;2023-03-09T20:44:03;99478.60;;;15.40
68745;BMP180;66104;45.456;11.064;2023-03-09T20:46:40;99476.40;;;15.40
68745;BMP180;66104;45.456;11.064;2023-03-09T20:49:17;99477.00;;;15.40
68745;BMP180;66104;45.456;11.064;2023-03-09T20:51:55;99475.40;;;15.40
68745;BMP180;66104;45.456;11.064;2023-03-09T20:54:31;99473.20;;;15.32
68745;BMP180;66104;45.456;11.064;2023-03-09T20:57:08;99468.80;;;15.32
68745;BMP180;66104;45.456;11.064;2023-03-09T20:59:45;99469.80;;;15.30
68745;BMP180;66104;45.456;11.064;2023-03-09T21:02:22;99469.60;;;15.30
68745;BMP180;66104;45.456;11.064;2023-03-09T21:05:00;99470.60;;;15.30
68745;BMP180;66104;45.456;11.064;2023-03-09T21:07:36;99471.80;;;15.22
68745;BMP180;66104;45.456;11.064;2023-03-09T21:10:14;99466.40;;;15.20
68745;BMP180;66104;45.456;11.064;2023-03-09T21:12:51;99468.40;;;15.20
68745;BMP180;66104;45.456;11.064;2023-03-09T21:15:29;99470.80;;;15.20
68745;BMP180;66104;45.456;11.064;2023-03-09T21:18:06;99475.00;;;15.20
68745;BMP180;66104;45.456;11.064;2023-03-09T21:20:43;99470.40;;;15.18
68745;BMP180;66104;45.456;11.064;2023-03-09T21:23:19;99463.20;;;15.10
68745;BMP180;66104;45.456;11.064;2023-03-09T21:26:07;99464.20;;;15.10
68745;BMP180;66104;45.456;11.064;2023-03-09T21:28:45;99463.20;;;15.02
68745;BMP180;66104;45.456;11.064;2023-03-09T21:31:25;99470.80;;;15.00
68745;BMP180;66104;45.456;11.064;2023-03-09T21:34:03;99470.40;;;14.90
68745;BMP180;66104;45.456;11.064;2023-03-09T21:36:39;99473.40;;;14.90
68745;BMP180;66104;45.456;11.064;2023-03-09T21:39:15;99468.20;;;14.90
68745;BMP180;66104;45.456;11.064;2023-03-09T21:41:52;99470.60;;;14.90
68745;BMP180;66104;45.456;11.064;2023-03-09T21:44:29;99469.80;;;14.90
68745;BMP180;66104;45.456;11.064;2023-03-09T21:47:07;99466.00;;;14.90
68745;BMP180;66104;45.456;11.064;2023-03-09T21:49:45;99464.60;;;14.90
68745;BMP180;66104;45.456;11.064;2023-03-09T21:52:22;99466.00;;;14.90
68745;BMP180;66104;45.456;11.064;2023-03-09T21:54:58;99460.40;;;14.90
68745;BMP180;66104;45.456;11.064;2023-03-09T21:57:35;99454.80;;;14.90
68745;BMP180;66104;45.456;11.064;2023-03-09T22:00:29;99455.80;;;14.90
68745;BMP180;66104;45.456;11.064;2023-03-09T22:03:07;99457.40;;;14.90
68745;BMP180;66104;45.456;11.064;2023-03-09T22:05:43;99457.00;;;14.90
68745;BMP180;66104;45.456;11.064;2023-03-09T22:08:20;99458.20;;;14.86
68745;BMP180;66104;45.456;11.064;2023-03-09T22:10:56;99451.80;;;14.80
68745;BMP180;66104;45.456;11.064;2023-03-09T22:13:33;99454.40;;;14.80
68745;BMP180;66104;45.456;11.064;2023-03-09T22:16:20;99454.80;;;14.80
68745;BMP180;66104;45.456;11.064;2023-03-09T22:18:58;99458.20;;;14.80
68745;BMP180;66104;45.456;11.064;2023-03-09T22:21:36;99452.40;;;14.80
68745;BMP180;66104;45.456;11.064;2023-03-09T22:24:15;99452.20;;;14.78
68745;BMP180;66104;45.456;11.064;2023-03-09T22:26:52;99450.60;;;14.70
68745;BMP180;66104;45.456;11.064;2023-03-09T22:29:31;99442.40;;;14.70
68745;BMP180;66104;45.456;11.064;2023-03-09T22:32:10;99441.80;;;14.70
68745;BMP180;66104;45.456;11.064;2023-03-09T22:34:51;99444.60;;;14.70
68745;BMP180;66104;45.456;11.064;2023-03-09T22:37:27;99441.40;;;14.70
68745;BMP180;66104;45.456;11.064;2023-03-09T22:40:10;99433.00;;;14.70
68745;BMP180;66104;45.456;11.064;2023-03-09T22:42:47;99435.20;;;14.70
68745;BMP180;66104;45.456;11.064;2023-03-09T22:45:24;99434.00;;;14.70
68745;BMP180;66104;45.456;11.064;2023-03-09T22:48:01;99437.00;;;14.64
68745;BMP180;66104;45.456;11.064;2023-03-09T22:50:37;99440.00;;;14.60
68745;BMP180;66104;45.456;11.064;2023-03-09T22:53:16;99440.80;;;14.60
68745;BMP180;66104;45.456;11.064;2023-03-09T22:55:54;99440.40;;;14.44
68745;BMP180;66104;45.456;11.064;2023-03-09T22:58:31;99440.40;;;14.40
68745;BMP180;66104;45.456;11.064;2023-03-09T23:01:17;99440.80;;;14.40
68745;BMP180;66104;45.456;11.064;2023-03-09T23:03:55;99438.20;;;14.32
68745;BMP180;66104;45.456;11.064;2023-03-09T23:06:35;99438.00;;;14.30
68745;BMP180;66104;45.456;11.064;2023-03-09T23:09:12;99437.00;;;14.30
68745;BMP180;66104;45.456;11.064;2023-03-09T23:11:48;99435.60;;;14.20
68745;BMP180;66104;45.456;11.064;2023-03-09T23:14:25;99434.20;;;14.20
68745;BMP180;66104;45.456;11.064;2023-03-09T23:17:06;99436.00;;;14.10
68745;BMP180;66104;45.456;11.064;2023-03-09T23:19:43;99438.60;;;14.08
68745;BMP180;66104;45.456;11.064;2023-03-09T23:22:20;99433.80;;;14.00
68745;BMP180;66104;45.456;11.064;2023-03-09T23:24:57;99430.00;;;14.00
68745;BMP180;66104;45.456;11.064;2023-03-09T23:27:35;99429.20;;;13.98
68745;BMP180;66104;45.456;11.064;2023-03-09T23:30:17;99423.20;;;13.90
68745;BMP180;66104;45.456;11.064;2023-03-09T23:32:54;99428.20;;;13.80
68745;BMP180;66104;45.456;11.064;2023-03-09T23:35:31;99426.40;;;13.70
68745;BMP180;66104;45.456;11.064;2023-03-09T23:38:11;99428.40;;;13.70
68745;BMP180;66104;45.456;11.064;2023-03-09T23:40:49;99426.40;;;13.68
68745;BMP180;66104;45.456;11.064;2023-03-09T23:43:26;99422.20;;;13.68
68745;BMP180;66104;45.456;11.064;2023-03-09T23:46:08;99421.40;;;13.70
68745;BMP180;66104;45.456;11.064;2023-03-09T23:48:46;99420.20;;;13.68
68745;BMP180;66104;45.456;11.064;2023-03-09T23:51:23;99424.40;;;13.70
68745;BMP180;66104;45.456;11.064;2023-03-09T23:54:00;99426.40;;;13.60
68745;BMP180;66104;45.456;11.064;2023-03-09T23:56:37;99435.80;;;13.60
68745;BMP180;66104;45.456;11.064;2023-03-09T23:59:14;99443.00;;;13.50
